sensor_id;sensor_type;location;lat;lon;timestamp;P1;durP1;ratioP1;P2;durP2;ratioP2
6290;SDS011;3178;48.730;8.990;2022-11-11T00:00:31;16.87;;;7.80;;
6290;SDS011;3178;48.730;8.990;2022-11-11T00:02:57;17.90;;;7.60;;
6290;SDS011;3178;48.730;8.990;2022-11-11T00:05:23;20.60;;;7.10;;
6290;SDS011;3178;48.730;8.990;2022-11-11T00:07:52;12.83;;;6.70;;
6290;SDS011;3178;48.730;8.990;2022-11-11T00:10:23;9.70;;;6.33;;
6290;SDS011;3178;48.730;8.990;2022-11-11T00:12:49;21.07;;;9.27;;
6290;SDS011;3178;48.730;8.990;2022-11-11T00:15:15;20.50;;;8.97;;
6290;SDS011;3178;48.730;8.990;2022-11-11T00:17:40;20.30;;;10.03;;
6290;SDS011;3178;48.730;8.990;2022-11-11T00:20:25;16.93;;;8.03;;
6290;SDS011;3178;48.730;8.990;2022-11-11T00:23:14;16.50;;;9.63;;
6290;SDS011;3178;48.730;8.990;2022-11-11T00:26:09;31.63;;;14.87;;
6290;SDS011;3178;48.730;8.990;2022-11-11T00:28:36;17.97;;;8.10;;
6290;SDS011;3178;48.730;8.990;2022-11-11T00:31:05;17.83;;;7.33;;
6290;SDS011;3178;48.730;8.990;2022-11-11T00:33:36;15.53;;;6.10;;
6290;SDS011;3178;48.730;8.990;2022-11-11T00:36:02;19.20;;;8.50;;
6290;SDS011;3178;48.730;8.990;2022-11-11T00:38:28;17.43;;;7.40;;
6290;SDS011;3178;48.730;8.990;2022-11-11T00:41:17;21.83;;;7.70;;
6290;SDS011;3178;48.730;8.990;2022-11-11T00:43:44;18.30;;;8.37;;
6290;SDS011;3178;48.730;8.990;2022-11-11T00:46:10;14.60;;;8.30;;
6290;SDS011;3178;48.730;8.990;2022-11-11T00:48:55;19.00;;;8.87;;
6290;SDS011;3178;48.730;8.990;2022-11-11T00:51:40;15.47;;;7.63;;
6290;SDS011;3178;48.730;8.990;2022-11-11T00:54:06;14.90;;;6.80;;
6290;SDS011;3178;48.730;8.990;2022-11-11T00:56:31;17.43;;;7.07;;
6290;SDS011;3178;48.730;8.990;2022-11-11T00:58:57;9.90;;;5.57;;
6290;SDS011;3178;48.730;8.990;2022-11-11T01:01:23;13.17;;;7.13;;
6290;SDS011;3178;48.730;8.990;2022-11-11T01:03:48;13.03;;;7.20;;
6290;SDS011;3178;48.730;8.990;2022-11-11T01:06:14;14.63;;;6.53;;
6290;SDS011;3178;48.730;8.990;2022-11-11T01:08:39;15.50;;;6.47;;
6290;SDS011;3178;48.730;8.990;2022-11-11T01:11:17;12.60;;;6.10;;
6290;SDS011;3178;48.730;8.990;2022-11-11T01:13:44;10.67;;;5.93;;
6290;SDS011;3178;48.730;8.990;2022-11-11T01:16:14;14.23;;;6.83;;
6290;SDS011;3178;48.730;8.990;2022-11-11T01:18:42;11.57;;;8.10;;
6290;SDS011;3178;48.730;8.990;2022-11-11T01:21:12;13.63;;;6.60;;
6290;SDS011;3178;48.730;8.990;2022-11-11T01:23:39;9.50;;;6.00;;
6290;SDS011;3178;48.730;8.990;2022-11-11T01:26:25;24.90;;;12.57;;
6290;SDS011;3178;48.730;8.990;2022-11-11T01:28:52;34.17;;;18.50;;
6290;SDS011;3178;48.730;8.990;2022-11-11T01:31:20;18.40;;;13.40;;
6290;SDS011;3178;48.730;8.990;2022-11-11T01:33:47;17.43;;;7.60;;
6290;SDS011;3178;48.730;8.990;2022-11-11T01:36:14;13.27;;;8.13;;
6290;SDS011;3178;48.730;8.990;2022-11-11T01:38:47;10.40;;;7.20;;
6290;SDS011;3178;48.730;8.990;2022-11-11T01:41:16;12.47;;;6.60;;
6290;SDS011;3178;48.730;8.990;2022-11-11T01:46:38;9.33;;;5.33;;
6290;SDS011;3178;48.730;8.990;2022-11-11T01:49:21;16.67;;;6.37;;
6290;SDS011;3178;48.730;8.990;2022-11-11T01:54:35;8.23;;;4.70;;
6290;SDS011;3178;48.730;8.990;2022-11-11T01:57:05;9.47;;;4.90;;
6290;SDS011;3178;48.730;8.990;2022-11-11T01:59:37;10.90;;;5.13;;
6290;SDS011;3178;48.730;8.990;2022-11-11T02:02:08;7.57;;;4.67;;
6290;SDS011;3178;48.730;8.990;2022-11-11T02:04:41;10.37;;;5.77;;
6290;SDS011;3178;48.730;8.990;2022-11-11T02:07:27;12.10;;;5.63;;
6290;SDS011;3178;48.730;8.990;2022-11-11T02:09:55;14.53;;;5.23;;
6290;SDS011;3178;48.730;8.990;2022-11-11T02:12:22;9.67;;;4.70;;
6290;SDS011;3178;48.730;8.990;2022-11-11T02:15:06;11.43;;;4.57;;
6290;SDS011;3178;48.730;8.990;2022-11-11T02:17:32;8.20;;;4.77;;
6290;SDS011;3178;48.730;8.990;2022-11-11T02:19:58;11.70;;;5.03;;
6290;SDS011;3178;48.730;8.990;2022-11-11T02:22:47;11.23;;;5.00;;
6290;SDS011;3178;48.730;8.990;2022-11-11T02:25:17;9.10;;;5.17;;
6290;SDS011;3178;48.730;8.990;2022-11-11T02:27:47;8.80;;;4.70;;
6290;SDS011;3178;48.730;8.990;2022-11-11T02:30:15;6.03;;;4.40;;
6290;SDS011;3178;48.730;8.990;2022-11-11T02:32:43;10.67;;;5.10;;
6290;SDS011;3178;48.730;8.990;2022-11-11T02:35:15;12.97;;;4.70;;
6290;SDS011;3178;48.730;8.990;2022-11-11T02:37:46;7.83;;;4.53;;
6290;SDS011;3178;48.730;8.990;2022-11-11T02:40:19;8.60;;;5.03;;
6290;SDS011;3178;48.730;8.990;2022-11-11T02:42:50;14.43;;;5.70;;
6290;SDS011;3178;48.730;8.990;2022-11-11T02:45:16;12.80;;;5.23;;
6290;SDS011;3178;48.730;8.990;2022-11-11T02:47:41;10.70;;;6.07;;
6290;SDS011;3178;48.730;8.990;2022-11-11T02:50:07;8.97;;;6.37;;
6290;SDS011;3178;48.730;8.990;2022-11-11T02:52:33;15.03;;;7.03;;
6290;SDS011;3178;48.730;8.990;2022-11-11T02:54:59;10.10;;;5.53;;
6290;SDS011;3178;48.730;8.990;2022-11-11T02:57:25;16.53;;;8.63;;
6290;SDS011;3178;48.730;8.990;2022-11-11T02:59:51;13.13;;;5.20;;
6290;SDS011;3178;48.730;8.990;2022-11-11T03:02:16;10.80;;;5.00;;
6290;SDS011;3178;48.730;8.990;2022-11-11T03:04:42;8.47;;;5.83;;
6290;SDS011;3178;48.730;8.990;2022-11-11T03:07:07;10.53;;;6.37;;
6290;SDS011;3178;48.730;8.990;2022-11-11T03:09:33;12.57;;;5.40;;
6290;SDS011;3178;48.730;8.990;2022-11-11T03:11:59;9.90;;;5.87;;
6290;SDS011;3178;48.730;8.990;2022-11-11T03:14:24;13.03;;;5.60;;
6290;SDS011;3178;48.730;8.990;2022-11-11T03:16:50;6.97;;;4.93;;
6290;SDS011;3178;48.730;8.990;2022-11-11T03:19:34;6.60;;;4.37;;
6290;SDS011;3178;48.730;8.990;2022-11-11T03:22:00;7.47;;;4.43;;
6290;SDS011;3178;48.730;8.990;2022-11-11T03:24:27;9.30;;;4.90;;
6290;SDS011;3178;48.730;8.990;2022-11-11T03:27:13;8.17;;;5.03;;
6290;SDS011;3178;48.730;8.990;2022-11-11T03:29:39;13.80;;;5.23;;
6290;SDS011;3178;48.730;8.990;2022-11-11T03:32:05;10.77;;;5.07;;
6290;SDS011;3178;48.730;8.990;2022-11-11T03:34:31;8.70;;;5.10;;
6290;SDS011;3178;48.730;8.990;2022-11-11T03:36:57;11.20;;;4.70;;
6290;SDS011;3178;48.730;8.990;2022-11-11T03:39:41;11.07;;;4.60;;
6290;SDS011;3178;48.730;8.990;2022-11-11T03:42:07;9.03;;;5.30;;
6290;SDS011;3178;48.730;8.990;2022-11-11T03:44:32;18.83;;;5.80;;
6290;SDS011;3178;48.730;8.990;2022-11-11T03:46:58;8.57;;;5.23;;
6290;SDS011;3178;48.730;8.990;2022-11-11T03:49:23;9.83;;;5.13;;
6290;SDS011;3178;48.730;8.990;2022-11-11T03:51:49;12.07;;;5.07;;
6290;SDS011;3178;48.730;8.990;2022-11-11T03:54:14;6.57;;;5.03;;
6290;SDS011;3178;48.730;8.990;2022-11-11T03:56:40;10.13;;;6.03;;
6290;SDS011;3178;48.730;8.990;2022-11-11T03:59:06;9.97;;;5.43;;
6290;SDS011;3178;48.730;8.990;2022-11-11T04:01:31;10.53;;;5.37;;
6290;SDS011;3178;48.730;8.990;2022-11-11T04:04:15;6.60;;;5.63;;
6290;SDS011;3178;48.730;8.990;2022-11-11T04:06:59;8.40;;;5.90;;
6290;SDS011;3178;48.730;8.990;2022-11-11T04:09:43;12.40;;;6.23;;
6290;SDS011;3178;48.730;8.990;2022-11-11T04:12:27;8.53;;;5.70;;
6290;SDS011;3178;48.730;8.990;2022-11-11T04:14:55;9.03;;;5.13;;
6290;SDS011;3178;48.730;8.990;2022-11-11T04:17:39;8.47;;;5.67;;
6290;SDS011;3178;48.730;8.990;2022-11-11T04:20:05;9.43;;;5.80;;
6290;SDS011;3178;48.730;8.990;2022-11-11T04:22:49;12.27;;;5.47;;
6290;SDS011;3178;48.730;8.990;2022-11-11T04:25:17;10.70;;;4.90;;
6290;SDS011;3178;48.730;8.990;2022-11-11T04:28:02;7.20;;;5.50;;
6290;SDS011;3178;48.730;8.990;2022-11-11T04:30:46;14.13;;;5.70;;
6290;SDS011;3178;48.730;8.990;2022-11-11T04:33:12;9.00;;;6.33;;
6290;SDS011;3178;48.730;8.990;2022-11-11T04:35:37;15.07;;;7.67;;
6290;SDS011;3178;48.730;8.990;2022-11-11T04:38:03;15.70;;;8.60;;
6290;SDS011;3178;48.730;8.990;2022-11-11T04:40:47;12.17;;;7.50;;
6290;SDS011;3178;48.730;8.990;2022-11-11T04:43:27;10.33;;;7.23;;
6290;SDS011;3178;48.730;8.990;2022-11-11T04:45:56;12.47;;;6.80;;
6290;SDS011;3178;48.730;8.990;2022-11-11T04:48:23;9.93;;;6.30;;
6290;SDS011;3178;48.730;8.990;2022-11-11T04:50:49;11.27;;;6.87;;
6290;SDS011;3178;48.730;8.990;2022-11-11T04:53:15;14.23;;;5.60;;
6290;SDS011;3178;48.730;8.990;2022-11-11T04:55:41;10.30;;;5.60;;
6290;SDS011;3178;48.730;8.990;2022-11-11T04:58:29;16.43;;;5.40;;
6290;SDS011;3178;48.730;8.990;2022-11-11T05:00:58;6.53;;;5.10;;
6290;SDS011;3178;48.730;8.990;2022-11-11T05:03:24;9.90;;;5.73;;
6290;SDS011;3178;48.730;8.990;2022-11-11T05:05:53;8.43;;;5.60;;
6290;SDS011;3178;48.730;8.990;2022-11-11T05:08:40;8.50;;;5.53;;
6290;SDS011;3178;48.730;8.990;2022-11-11T05:11:29;12.13;;;4.87;;
6290;SDS011;3178;48.730;8.990;2022-11-11T05:13:57;6.83;;;5.07;;
6290;SDS011;3178;48.730;8.990;2022-11-11T05:16:43;7.43;;;5.00;;
6290;SDS011;3178;48.730;8.990;2022-11-11T05:19:31;7.77;;;5.53;;
6290;SDS011;3178;48.730;8.990;2022-11-11T05:22:22;10.20;;;5.40;;
6290;SDS011;3178;48.730;8.990;2022-11-11T05:24:51;8.93;;;5.17;;
6290;SDS011;3178;48.730;8.990;2022-11-11T05:27:36;6.87;;;4.60;;
6290;SDS011;3178;48.730;8.990;2022-11-11T05:30:02;10.13;;;6.20;;
6290;SDS011;3178;48.730;8.990;2022-11-11T05:32:29;8.43;;;5.00;;
6290;SDS011;3178;48.730;8.990;2022-11-11T05:34:55;8.47;;;5.00;;
6290;SDS011;3178;48.730;8.990;2022-11-11T05:37:20;8.40;;;5.30;;
6290;SDS011;3178;48.730;8.990;2022-11-11T05:39:46;9.70;;;5.20;;
6290;SDS011;3178;48.730;8.990;2022-11-11T05:42:12;9.03;;;4.70;;
6290;SDS011;3178;48.730;8.990;2022-11-11T05:44:37;5.60;;;4.47;;
6290;SDS011;3178;48.730;8.990;2022-11-11T05:47:03;6.00;;;4.30;;
6290;SDS011;3178;48.730;8.990;2022-11-11T05:49:29;6.07;;;4.17;;
6290;SDS011;3178;48.730;8.990;2022-11-11T05:51:55;6.37;;;4.87;;
6290;SDS011;3178;48.730;8.990;2022-11-11T05:54:21;8.97;;;4.67;;
6290;SDS011;3178;48.730;8.990;2022-11-11T05:56:46;7.03;;;4.80;;
6290;SDS011;3178;48.730;8.990;2022-11-11T05:59:12;8.23;;;5.50;;
6290;SDS011;3178;48.730;8.990;2022-11-11T06:01:38;11.20;;;5.23;;
6290;SDS011;3178;48.730;8.990;2022-11-11T06:04:03;8.23;;;4.90;;
6290;SDS011;3178;48.730;8.990;2022-11-11T06:06:29;7.93;;;4.73;;
6290;SDS011;3178;48.730;8.990;2022-11-11T06:08:56;7.70;;;5.10;;
6290;SDS011;3178;48.730;8.990;2022-11-11T06:11:22;10.50;;;5.87;;
6290;SDS011;3178;48.730;8.990;2022-11-11T06:13:48;9.67;;;5.30;;
6290;SDS011;3178;48.730;8.990;2022-11-11T06:16:14;7.00;;;4.60;;
6290;SDS011;3178;48.730;8.990;2022-11-11T06:18:39;8.20;;;5.07;;
6290;SDS011;3178;48.730;8.990;2022-11-11T06:21:05;6.80;;;5.17;;
6290;SDS011;3178;48.730;8.990;2022-11-11T06:23:31;7.53;;;4.77;;
6290;SDS011;3178;48.730;8.990;2022-11-11T06:25:56;8.07;;;4.80;;
6290;SDS011;3178;48.730;8.990;2022-11-11T06:28:45;5.77;;;4.53;;
6290;SDS011;3178;48.730;8.990;2022-11-11T06:31:15;10.33;;;4.93;;
6290;SDS011;3178;48.730;8.990;2022-11-11T06:33:48;8.90;;;5.23;;
6290;SDS011;3178;48.730;8.990;2022-11-11T06:36:15;13.47;;;5.53;;
6290;SDS011;3178;48.730;8.990;2022-11-11T06:38:42;8.40;;;5.43;;
6290;SDS011;3178;48.730;8.990;2022-11-11T06:41:08;11.73;;;5.37;;
6290;SDS011;3178;48.730;8.990;2022-11-11T06:43:36;11.97;;;5.37;;
6290;SDS011;3178;48.730;8.990;2022-11-11T06:46:06;5.67;;;5.03;;
6290;SDS011;3178;48.730;8.990;2022-11-11T06:48:37;7.20;;;4.40;;
6290;SDS011;3178;48.730;8.990;2022-11-11T06:51:06;10.23;;;5.40;;
6290;SDS011;3178;48.730;8.990;2022-11-11T06:53:31;12.23;;;6.00;;
6290;SDS011;3178;48.730;8.990;2022-11-11T06:55:57;9.57;;;5.30;;
6290;SDS011;3178;48.730;8.990;2022-11-11T06:58:23;8.70;;;5.80;;
6290;SDS011;3178;48.730;8.990;2022-11-11T07:00:49;10.73;;;6.03;;
6290;SDS011;3178;48.730;8.990;2022-11-11T07:03:16;7.80;;;4.80;;
6290;SDS011;3178;48.730;8.990;2022-11-11T07:05:43;11.37;;;5.83;;
6290;SDS011;3178;48.730;8.990;2022-11-11T07:08:16;10.20;;;5.90;;
6290;SDS011;3178;48.730;8.990;2022-11-11T07:10:44;8.87;;;5.63;;
6290;SDS011;3178;48.730;8.990;2022-11-11T07:13:11;8.57;;;6.20;;
6290;SDS011;3178;48.730;8.990;2022-11-11T07:15:37;11.87;;;6.10;;
6290;SDS011;3178;48.730;8.990;2022-11-11T07:18:02;14.50;;;5.83;;
6290;SDS011;3178;48.730;8.990;2022-11-11T07:20:28;8.23;;;5.40;;
6290;SDS011;3178;48.730;8.990;2022-11-11T07:22:53;11.87;;;6.80;;
6290;SDS011;3178;48.730;8.990;2022-11-11T07:25:19;11.63;;;6.90;;
6290;SDS011;3178;48.730;8.990;2022-11-11T07:27:45;16.07;;;12.00;;
6290;SDS011;3178;48.730;8.990;2022-11-11T07:30:11;26.27;;;18.30;;
6290;SDS011;3178;48.730;8.990;2022-11-11T07:32:42;48.17;;;32.37;;
6290;SDS011;3178;48.730;8.990;2022-11-11T07:35:09;13.90;;;10.00;;
6290;SDS011;3178;48.730;8.990;2022-11-11T07:37:35;23.70;;;13.97;;
6290;SDS011;3178;48.730;8.990;2022-11-11T07:40:01;39.73;;;25.50;;
6290;SDS011;3178;48.730;8.990;2022-11-11T07:42:27;58.90;;;32.47;;
6290;SDS011;3178;48.730;8.990;2022-11-11T07:44:53;35.77;;;19.93;;
6290;SDS011;3178;48.730;8.990;2022-11-11T07:47:18;19.80;;;13.03;;
6290;SDS011;3178;48.730;8.990;2022-11-11T07:49:44;57.60;;;29.13;;
6290;SDS011;3178;48.730;8.990;2022-11-11T07:52:09;18.40;;;11.00;;
6290;SDS011;3178;48.730;8.990;2022-11-11T07:54:35;14.60;;;7.83;;
6290;SDS011;3178;48.730;8.990;2022-11-11T07:57:00;14.33;;;7.60;;
6290;SDS011;3178;48.730;8.990;2022-11-11T07:59:26;24.30;;;14.27;;
6290;SDS011;3178;48.730;8.990;2022-11-11T08:01:51;26.13;;;15.00;;
6290;SDS011;3178;48.730;8.990;2022-11-11T08:04:17;28.93;;;15.90;;
6290;SDS011;3178;48.730;8.990;2022-11-11T08:06:42;29.27;;;15.67;;
6290;SDS011;3178;48.730;8.990;2022-11-11T08:09:08;29.53;;;16.10;;
6290;SDS011;3178;48.730;8.990;2022-11-11T08:11:34;20.73;;;10.33;;
6290;SDS011;3178;48.730;8.990;2022-11-11T08:14:18;20.53;;;9.13;;
6290;SDS011;3178;48.730;8.990;2022-11-11T08:16:43;13.53;;;7.27;;
6290;SDS011;3178;48.730;8.990;2022-11-11T08:19:09;14.20;;;7.40;;
6290;SDS011;3178;48.730;8.990;2022-11-11T08:21:34;19.47;;;9.20;;
6290;SDS011;3178;48.730;8.990;2022-11-11T08:24:00;18.93;;;7.13;;
6290;SDS011;3178;48.730;8.990;2022-11-11T08:26:25;18.33;;;8.97;;
6290;SDS011;3178;48.730;8.990;2022-11-11T08:28:51;14.70;;;11.33;;
6290;SDS011;3178;48.730;8.990;2022-11-11T08:31:17;12.73;;;8.50;;
6290;SDS011;3178;48.730;8.990;2022-11-11T08:33:43;16.20;;;8.10;;
6290;SDS011;3178;48.730;8.990;2022-11-11T08:36:08;36.87;;;24.80;;
6290;SDS011;3178;48.730;8.990;2022-11-11T08:38:35;24.53;;;13.83;;
6290;SDS011;3178;48.730;8.990;2022-11-11T08:41:02;20.90;;;8.63;;
6290;SDS011;3178;48.730;8.990;2022-11-11T08:43:29;18.80;;;7.80;;
6290;SDS011;3178;48.730;8.990;2022-11-11T08:45:56;21.23;;;9.63;;
6290;SDS011;3178;48.730;8.990;2022-11-11T08:48:22;25.13;;;13.23;;
6290;SDS011;3178;48.730;8.990;2022-11-11T08:50:50;21.33;;;11.40;;
6290;SDS011;3178;48.730;8.990;2022-11-11T08:53:16;21.83;;;11.27;;
6290;SDS011;3178;48.730;8.990;2022-11-11T08:55:42;16.73;;;9.10;;
6290;SDS011;3178;48.730;8.990;2022-11-11T08:58:08;18.80;;;8.87;;
6290;SDS011;3178;48.730;8.990;2022-11-11T09:00:34;13.43;;;6.53;;
6290;SDS011;3178;48.730;8.990;2022-11-11T09:03:04;11.00;;;6.03;;
6290;SDS011;3178;48.730;8.990;2022-11-11T09:05:36;8.00;;;5.10;;
6290;SDS011;3178;48.730;8.990;2022-11-11T09:08:03;6.47;;;4.53;;
6290;SDS011;3178;48.730;8.990;2022-11-11T09:10:31;13.23;;;6.50;;
6290;SDS011;3178;48.730;8.990;2022-11-11T09:13:01;11.50;;;5.50;;
6290;SDS011;3178;48.730;8.990;2022-11-11T09:15:27;8.10;;;5.00;;
6290;SDS011;3178;48.730;8.990;2022-11-11T09:17:53;8.07;;;3.70;;
6290;SDS011;3178;48.730;8.990;2022-11-11T09:20:19;7.63;;;3.23;;
6290;SDS011;3178;48.730;8.990;2022-11-11T09:22:46;7.37;;;3.80;;
6290;SDS011;3178;48.730;8.990;2022-11-11T09:25:12;8.00;;;3.20;;
6290;SDS011;3178;48.730;8.990;2022-11-11T09:27:39;4.87;;;3.27;;
6290;SDS011;3178;48.730;8.990;2022-11-11T09:30:05;4.20;;;2.83;;
6290;SDS011;3178;48.730;8.990;2022-11-11T09:32:31;5.27;;;2.93;;
6290;SDS011;3178;48.730;8.990;2022-11-11T09:34:58;4.00;;;2.40;;
6290;SDS011;3178;48.730;8.990;2022-11-11T09:37:24;9.20;;;2.70;;
6290;SDS011;3178;48.730;8.990;2022-11-11T09:39:50;11.97;;;3.13;;
6290;SDS011;3178;48.730;8.990;2022-11-11T09:42:17;6.53;;;2.90;;
6290;SDS011;3178;48.730;8.990;2022-11-11T09:50:50;3.30;;;2.37;;
6290;SDS011;3178;48.730;8.990;2022-11-11T09:53:39;3.30;;;2.50;;
6290;SDS011;3178;48.730;8.990;2022-11-11T09:56:10;3.70;;;2.70;;
6290;SDS011;3178;48.730;8.990;2022-11-11T10:01:21;10.70;;;3.40;;
6290;SDS011;3178;48.730;8.990;2022-11-11T10:04:12;6.20;;;3.20;;
6290;SDS011;3178;48.730;8.990;2022-11-11T10:06:41;5.77;;;2.60;;
6290;SDS011;3178;48.730;8.990;2022-11-11T10:09:27;8.47;;;2.50;;
6290;SDS011;3178;48.730;8.990;2022-11-11T10:14:24;3.73;;;2.47;;
6290;SDS011;3178;48.730;8.990;2022-11-11T10:20:23;6.43;;;2.83;;
6290;SDS011;3178;48.730;8.990;2022-11-11T10:22:54;13.97;;;4.10;;
6290;SDS011;3178;48.730;8.990;2022-11-11T10:25:29;6.73;;;2.87;;
6290;SDS011;3178;48.730;8.990;2022-11-11T10:27:56;5.27;;;2.70;;
6290;SDS011;3178;48.730;8.990;2022-11-11T10:30:30;3.90;;;2.67;;
6290;SDS011;3178;48.730;8.990;2022-11-11T10:32:59;3.90;;;2.20;;
6290;SDS011;3178;48.730;8.990;2022-11-11T10:35:46;7.80;;;3.60;;
6290;SDS011;3178;48.730;8.990;2022-11-11T10:38:16;8.50;;;2.80;;
6290;SDS011;3178;48.730;8.990;2022-11-11T10:40:53;3.93;;;2.50;;
6290;SDS011;3178;48.730;8.990;2022-11-11T10:43:24;3.43;;;3.00;;
6290;SDS011;3178;48.730;8.990;2022-11-11T10:45:53;8.53;;;2.70;;
6290;SDS011;3178;48.730;8.990;2022-11-11T10:51:21;3.83;;;2.67;;
6290;SDS011;3178;48.730;8.990;2022-11-11T10:54:03;5.43;;;2.40;;
6290;SDS011;3178;48.730;8.990;2022-11-11T10:56:41;6.83;;;2.67;;
6290;SDS011;3178;48.730;8.990;2022-11-11T10:59:20;4.17;;;2.90;;
6290;SDS011;3178;48.730;8.990;2022-11-11T11:01:54;6.20;;;2.93;;
6290;SDS011;3178;48.730;8.990;2022-11-11T11:07:23;5.73;;;2.63;;
6290;SDS011;3178;48.730;8.990;2022-11-11T11:09:54;7.13;;;2.80;;
6290;SDS011;3178;48.730;8.990;2022-11-11T11:12:48;4.10;;;2.37;;
6290;SDS011;3178;48.730;8.990;2022-11-11T11:15:29;4.37;;;2.30;;
6290;SDS011;3178;48.730;8.990;2022-11-11T11:18:13;5.17;;;2.73;;
6290;SDS011;3178;48.730;8.990;2022-11-11T11:20:57;12.30;;;2.80;;
6290;SDS011;3178;48.730;8.990;2022-11-11T11:26:10;6.87;;;2.17;;
6290;SDS011;3178;48.730;8.990;2022-11-11T11:28:53;6.10;;;1.90;;
6290;SDS011;3178;48.730;8.990;2022-11-11T11:31:44;5.43;;;2.30;;
6290;SDS011;3178;48.730;8.990;2022-11-11T11:34:11;3.10;;;1.83;;
6290;SDS011;3178;48.730;8.990;2022-11-11T11:36:37;4.80;;;1.83;;
6290;SDS011;3178;48.730;8.990;2022-11-11T11:39:02;4.77;;;2.07;;
6290;SDS011;3178;48.730;8.990;2022-11-11T11:41:38;6.83;;;2.13;;
6290;SDS011;3178;48.730;8.990;2022-11-11T11:44:24;5.87;;;2.37;;
6290;SDS011;3178;48.730;8.990;2022-11-11T11:55:49;4.43;;;2.60;;
6290;SDS011;3178;48.730;8.990;2022-11-11T11:58:32;7.70;;;4.13;;
6290;SDS011;3178;48.730;8.990;2022-11-11T12:01:23;10.33;;;3.17;;
6290;SDS011;3178;48.730;8.990;2022-11-11T12:12:45;9.87;;;2.53;;
6290;SDS011;3178;48.730;8.990;2022-11-11T12:20:48;4.60;;;2.40;;
6290;SDS011;3178;48.730;8.990;2022-11-11T12:26:32;2.97;;;2.17;;
6290;SDS011;3178;48.730;8.990;2022-11-11T12:35:00;4.60;;;2.23;;
6290;SDS011;3178;48.730;8.990;2022-11-11T12:37:43;5.40;;;2.30;;
6290;SDS011;3178;48.730;8.990;2022-11-11T12:45:57;4.07;;;1.80;;
6290;SDS011;3178;48.730;8.990;2022-11-11T12:54:00;4.70;;;2.00;;
6290;SDS011;3178;48.730;8.990;2022-11-11T13:05:29;4.60;;;2.30;;
6290;SDS011;3178;48.730;8.990;2022-11-11T13:10:57;5.10;;;2.00;;
6290;SDS011;3178;48.730;8.990;2022-11-11T13:16:21;6.30;;;4.03;;
6290;SDS011;3178;48.730;8.990;2022-11-11T13:19:35;7.03;;;2.07;;
6290;SDS011;3178;48.730;8.990;2022-11-11T13:22:12;6.20;;;2.17;;
6290;SDS011;3178;48.730;8.990;2022-11-11T13:24:39;3.00;;;2.30;;
6290;SDS011;3178;48.730;8.990;2022-11-11T13:32:47;5.90;;;2.70;;
6290;SDS011;3178;48.730;8.990;2022-11-11T13:35:40;5.73;;;2.67;;
6290;SDS011;3178;48.730;8.990;2022-11-11T13:38:08;5.90;;;2.53;;
6290;SDS011;3178;48.730;8.990;2022-11-11T13:40:56;5.80;;;2.57;;
6290;SDS011;3178;48.730;8.990;2022-11-11T13:45:56;5.17;;;2.27;;
6290;SDS011;3178;48.730;8.990;2022-11-11T13:48:45;4.80;;;2.40;;
6290;SDS011;3178;48.730;8.990;2022-11-11T13:51:25;5.43;;;2.07;;
6290;SDS011;3178;48.730;8.990;2022-11-11T13:53:51;5.17;;;2.17;;
6290;SDS011;3178;48.730;8.990;2022-11-11T13:59:05;3.97;;;2.00;;
6290;SDS011;3178;48.730;8.990;2022-11-11T14:01:35;4.50;;;1.70;;
6290;SDS011;3178;48.730;8.990;2022-11-11T14:04:03;4.27;;;2.03;;
6290;SDS011;3178;48.730;8.990;2022-11-11T14:08:57;5.20;;;1.60;;
6290;SDS011;3178;48.730;8.990;2022-11-11T14:13:50;3.57;;;1.80;;
6290;SDS011;3178;48.730;8.990;2022-11-11T14:21:52;8.30;;;1.90;;
6290;SDS011;3178;48.730;8.990;2022-11-11T14:24:31;6.13;;;1.70;;
6290;SDS011;3178;48.730;8.990;2022-11-11T14:29:45;3.03;;;1.77;;
6290;SDS011;3178;48.730;8.990;2022-11-11T14:38:05;5.70;;;2.10;;
6290;SDS011;3178;48.730;8.990;2022-11-11T14:40:36;8.77;;;3.70;;
6290;SDS011;3178;48.730;8.990;2022-11-11T14:46:08;4.37;;;2.23;;
6290;SDS011;3178;48.730;8.990;2022-11-11T14:48:48;5.20;;;2.83;;
6290;SDS011;3178;48.730;8.990;2022-11-11T14:54:20;8.57;;;2.60;;
6290;SDS011;3178;48.730;8.990;2022-11-11T14:56:58;3.20;;;1.93;;
6290;SDS011;3178;48.730;8.990;2022-11-11T14:59:31;5.00;;;1.90;;
6290;SDS011;3178;48.730;8.990;2022-11-11T15:01:57;4.63;;;1.43;;
6290;SDS011;3178;48.730;8.990;2022-11-11T15:04:24;5.20;;;2.23;;
6290;SDS011;3178;48.730;8.990;2022-11-11T15:06:52;3.90;;;1.40;;
6290;SDS011;3178;48.730;8.990;2022-11-11T15:12:37;4.33;;;2.30;;
6290;SDS011;3178;48.730;8.990;2022-11-11T15:15:27;7.73;;;2.63;;
6290;SDS011;3178;48.730;8.990;2022-11-11T15:18:00;6.30;;;2.27;;
6290;SDS011;3178;48.730;8.990;2022-11-11T15:23:37;9.77;;;1.87;;
6290;SDS011;3178;48.730;8.990;2022-11-11T15:26:35;4.70;;;2.10;;
6290;SDS011;3178;48.730;8.990;2022-11-11T15:29:12;4.37;;;2.30;;
6290;SDS011;3178;48.730;8.990;2022-11-11T15:34:43;7.20;;;2.23;;
6290;SDS011;3178;48.730;8.990;2022-11-11T15:37:15;18.23;;;2.70;;
6290;SDS011;3178;48.730;8.990;2022-11-11T15:39:44;12.23;;;3.00;;
6290;SDS011;3178;48.730;8.990;2022-11-11T15:42:16;12.70;;;2.40;;
6290;SDS011;3178;48.730;8.990;2022-11-11T15:44:51;8.67;;;2.50;;
6290;SDS011;3178;48.730;8.990;2022-11-11T15:47:18;8.50;;;2.30;;
6290;SDS011;3178;48.730;8.990;2022-11-11T15:49:45;11.50;;;2.47;;
6290;SDS011;3178;48.730;8.990;2022-11-11T15:54:55;8.00;;;3.17;;
6290;SDS011;3178;48.730;8.990;2022-11-11T15:57:31;8.80;;;2.30;;
6290;SDS011;3178;48.730;8.990;2022-11-11T15:59:59;5.40;;;1.70;;
6290;SDS011;3178;48.730;8.990;2022-11-11T16:02:27;6.50;;;2.37;;
6290;SDS011;3178;48.730;8.990;2022-11-11T16:05:01;5.00;;;1.90;;
6290;SDS011;3178;48.730;8.990;2022-11-11T16:07:35;4.63;;;1.60;;
6290;SDS011;3178;48.730;8.990;2022-11-11T16:10:06;4.80;;;2.13;;
6290;SDS011;3178;48.730;8.990;2022-11-11T16:12:41;11.37;;;2.10;;
6290;SDS011;3178;48.730;8.990;2022-11-11T16:15:17;5.20;;;2.47;;
6290;SDS011;3178;48.730;8.990;2022-11-11T16:17:50;5.13;;;2.20;;
6290;SDS011;3178;48.730;8.990;2022-11-11T16:20:19;5.20;;;2.40;;
6290;SDS011;3178;48.730;8.990;2022-11-11T16:22:51;8.20;;;2.40;;
6290;SDS011;3178;48.730;8.990;2022-11-11T16:25:22;4.63;;;2.40;;
6290;SDS011;3178;48.730;8.990;2022-11-11T16:27:47;5.90;;;2.33;;
6290;SDS011;3178;48.730;8.990;2022-11-11T16:32:52;7.90;;;3.10;;
6290;SDS011;3178;48.730;8.990;2022-11-11T16:35:25;7.13;;;2.50;;
6290;SDS011;3178;48.730;8.990;2022-11-11T16:37:52;5.77;;;2.10;;
6290;SDS011;3178;48.730;8.990;2022-11-11T16:43:05;11.43;;;3.83;;
6290;SDS011;3178;48.730;8.990;2022-11-11T16:45:54;8.60;;;3.63;;
6290;SDS011;3178;48.730;8.990;2022-11-11T16:51:04;11.50;;;2.87;;
6290;SDS011;3178;48.730;8.990;2022-11-11T16:53:35;3.93;;;2.30;;
6290;SDS011;3178;48.730;8.990;2022-11-11T16:56:04;4.13;;;2.63;;
6290;SDS011;3178;48.730;8.990;2022-11-11T16:58:31;4.97;;;2.40;;
6290;SDS011;3178;48.730;8.990;2022-11-11T17:01:04;4.80;;;2.90;;
6290;SDS011;3178;48.730;8.990;2022-11-11T17:03:31;10.40;;;2.53;;
6290;SDS011;3178;48.730;8.990;2022-11-11T17:06:03;4.40;;;2.50;;
6290;SDS011;3178;48.730;8.990;2022-11-11T17:08:35;3.70;;;2.20;;
6290;SDS011;3178;48.730;8.990;2022-11-11T17:11:06;8.13;;;2.50;;
6290;SDS011;3178;48.730;8.990;2022-11-11T17:13:52;5.60;;;2.60;;
6290;SDS011;3178;48.730;8.990;2022-11-11T17:16:18;8.70;;;2.30;;
6290;SDS011;3178;48.730;8.990;2022-11-11T17:18:43;12.93;;;2.33;;
6290;SDS011;3178;48.730;8.990;2022-11-11T17:21:09;3.67;;;2.40;;
6290;SDS011;3178;48.730;8.990;2022-11-11T17:23:36;7.67;;;2.97;;
6290;SDS011;3178;48.730;8.990;2022-11-11T17:26:02;4.37;;;2.13;;
6290;SDS011;3178;48.730;8.990;2022-11-11T17:28:32;4.50;;;2.40;;
6290;SDS011;3178;48.730;8.990;2022-11-11T17:31:08;9.37;;;2.43;;
6290;SDS011;3178;48.730;8.990;2022-11-11T17:33:35;8.97;;;2.50;;
6290;SDS011;3178;48.730;8.990;2022-11-11T17:36:01;5.93;;;2.90;;
6290;SDS011;3178;48.730;8.990;2022-11-11T17:38:26;10.63;;;3.30;;
6290;SDS011;3178;48.730;8.990;2022-11-11T17:40:52;4.00;;;2.80;;
6290;SDS011;3178;48.730;8.990;2022-11-11T17:43:18;9.03;;;4.27;;
6290;SDS011;3178;48.730;8.990;2022-11-11T17:45:43;7.50;;;5.30;;
6290;SDS011;3178;48.730;8.990;2022-11-11T17:48:09;7.37;;;4.70;;
6290;SDS011;3178;48.730;8.990;2022-11-11T17:50:36;14.73;;;5.00;;
6290;SDS011;3178;48.730;8.990;2022-11-11T17:53:03;7.40;;;3.70;;